sensor_id;sensor_type;location;lat;lon;timestamp;temperature;humidity
18898;DHT22;9581;49.484;8.556;2023-08-21T00:01:29;23.60;99.90
18898;DHT22;9581;49.484;8.556;2023-08-21T00:03:56;23.60;99.90
18898;DHT22;9581;49.484;8.556;2023-08-21T00:06:23;23.60;99.90
18898;DHT22;9581;49.484;8.556;2023-08-21T00:08:50;23.60;99.90
18898;DHT22;9581;49.484;8.556;2023-08-21T00:11:17;23.60;99.90
18898;DHT22;9581;49.484;8.556;2023-08-21T00:13:45;23.50;99.90
18898;DHT22;9581;49.484;8.556;2023-08-21T00:16:14;23.50;99.90
18898;DHT22;9581;49.484;8.556;2023-08-21T00:18:40;23.60;99.90
18898;DHT22;9581;49.484;8.556;2023-08-21T00:21:07;23.50;99.90
18898;DHT22;9581;49.484;8.556;2023-08-21T00:23:34;23.40;99.90
18898;DHT22;9581;49.484;8.556;2023-08-21T00:26:01;23.50;99.90
18898;DHT22;9581;49.484;8.556;2023-08-21T00:28:28;23.40;99.90
18898;DHT22;9581;49.484;8.556;2023-08-21T00:31:01;23.40;99.90
18898;DHT22;9581;49.484;8.556;2023-08-21T00:33:30;23.30;99.90
18898;DHT22;9581;49.484;8.556;2023-08-21T00:35:57;23.30;99.90
18898;DHT22;9581;49.484;8.556;2023-08-21T00:38:24;23.20;99.90
18898;DHT22;9581;49.484;8.556;2023-08-21T00:40:51;23.30;99.90
18898;DHT22;9581;49.484;8.556;2023-08-21T00:43:18;23.40;99.90
18898;DHT22;9581;49.484;8.556;2023-08-21T00:45:46;23.50;99.90
18898;DHT22;9581;49.484;8.556;2023-08-21T00:48:14;23.40;99.90
18898;DHT22;9581;49.484;8.556;2023-08-21T00:50:42;23.10;99.90
18898;DHT22;9581;49.484;8.556;2023-08-21T00:53:10;23.10;99.90
18898;DHT22;9581;49.484;8.556;2023-08-21T00:55:38;23.20;99.90
18898;DHT22;9581;49.484;8.556;2023-08-21T00:58:05;23.10;99.90
18898;DHT22;9581;49.484;8.556;2023-08-21T01:00:34;23.20;99.90
18898;DHT22;9581;49.484;8.556;2023-08-21T01:03:01;23.10;99.90
18898;DHT22;9581;49.484;8.556;2023-08-21T01:05:30;23.10;99.90
18898;DHT22;9581;49.484;8.556;2023-08-21T01:08:01;23.10;99.90
18898;DHT22;9581;49.484;8.556;2023-08-21T01:10:36;23.00;99.90
18898;DHT22;9581;49.484;8.556;2023-08-21T01:13:09;23.00;99.90
18898;DHT22;9581;49.484;8.556;2023-08-21T01:15:38;22.90;99.90
18898;DHT22;9581;49.484;8.556;2023-08-21T01:18:07;22.90;99.90
18898;DHT22;9581;49.484;8.556;2023-08-21T01:20:37;22.90;99.90
18898;DHT22;9581;49.484;8.556;2023-08-21T01:23:04;22.90;99.90
18898;DHT22;9581;49.484;8.556;2023-08-21T01:25:33;22.90;99.90
18898;DHT22;9581;49.484;8.556;2023-08-21T01:28:01;22.90;99.90
18898;DHT22;9581;49.484;8.556;2023-08-21T01:30:30;22.90;99.90
18898;DHT22;9581;49.484;8.556;2023-08-21T01:33:02;22.90;99.90
18898;DHT22;9581;49.484;8.556;2023-08-21T01:35:31;22.80;99.90
18898;DHT22;9581;49.484;8.556;2023-08-21T01:38:00;22.80;99.90
18898;DHT22;9581;49.484;8.556;2023-08-21T01:40:27;22.70;99.90
18898;DHT22;9581;49.484;8.556;2023-08-21T01:42:55;22.70;99.90
18898;DHT22;9581;49.484;8.556;2023-08-21T01:45:22;22.80;99.90
18898;DHT22;9581;49.484;8.556;2023-08-21T01:47:49;22.60;99.90
18898;DHT22;9581;49.484;8.556;2023-08-21T01:50:16;22.70;99.90
18898;DHT22;9581;49.484;8.556;2023-08-21T01:52:43;22.70;99.90
18898;DHT22;9581;49.484;8.556;2023-08-21T01:55:10;22.70;99.90
18898;DHT22;9581;49.484;8.556;2023-08-21T01:57:37;22.70;99.90
18898;DHT22;9581;49.484;8.556;2023-08-21T02:00:06;22.60;99.90
18898;DHT22;9581;49.484;8.556;2023-08-21T02:02:33;22.60;99.90
18898;DHT22;9581;49.484;8.556;2023-08-21T02:05:00;22.60;99.90
18898;DHT22;9581;49.484;8.556;2023-08-21T02:07:28;22.60;99.90
18898;DHT22;9581;49.484;8.556;2023-08-21T02:09:55;22.60;99.90
18898;DHT22;9581;49.484;8.556;2023-08-21T02:12:22;22.70;99.90
18898;DHT22;9581;49.484;8.556;2023-08-21T02:14:48;22.60;99.90
18898;DHT22;9581;49.484;8.556;2023-08-21T02:17:17;22.60;99.90
18898;DHT22;9581;49.484;8.556;2023-08-21T02:19:43;22.60;99.90
18898;DHT22;9581;49.484;8.556;2023-08-21T02:22:10;22.70;99.90
18898;DHT22;9581;49.484;8.556;2023-08-21T02:24:37;22.70;99.90
18898;DHT22;9581;49.484;8.556;2023-08-21T02:27:05;22.60;99.90
18898;DHT22;9581;49.484;8.556;2023-08-21T02:29:31;22.50;99.90
18898;DHT22;9581;49.484;8.556;2023-08-21T02:31:58;22.50;99.90
18898;DHT22;9581;49.484;8.556;2023-08-21T02:34:26;22.50;99.90
18898;DHT22;9581;49.484;8.556;2023-08-21T02:36:53;22.50;99.90
18898;DHT22;9581;49.484;8.556;2023-08-21T02:39:20;22.50;99.90
18898;DHT22;9581;49.484;8.556;2023-08-21T02:41:47;22.50;99.90
18898;DHT22;9581;49.484;8.556;2023-08-21T02:44:14;22.50;99.90
18898;DHT22;9581;49.484;8.556;2023-08-21T02:46:41;22.50;99.90
18898;DHT22;9581;49.484;8.556;2023-08-21T02:49:07;22.40;99.90
18898;DHT22;9581;49.484;8.556;2023-08-21T02:51:36;22.30;99.90
18898;DHT22;9581;49.484;8.556;2023-08-21T02:54:03;22.40;99.90
18898;DHT22;9581;49.484;8.556;2023-08-21T02:56:30;22.30;99.90
18898;DHT22;9581;49.484;8.556;2023-08-21T02:58:57;22.30;99.90
18898;DHT22;9581;49.484;8.556;2023-08-21T03:01:23;22.30;99.90
18898;DHT22;9581;49.484;8.556;2023-08-21T03:03:50;22.30;99.90
18898;DHT22;9581;49.484;8.556;2023-08-21T03:06:17;22.30;99.90
18898;DHT22;9581;49.484;8.556;2023-08-21T03:08:45;22.30;99.90
18898;DHT22;9581;49.484;8.556;2023-08-21T03:11:12;22.30;99.90
18898;DHT22;9581;49.484;8.556;2023-08-21T03:13:39;22.30;99.90
18898;DHT22;9581;49.484;8.556;2023-08-21T03:16:06;22.30;99.90
18898;DHT22;9581;49.484;8.556;2023-08-21T03:21:19;22.20;99.90
18898;DHT22;9581;49.484;8.556;2023-08-21T03:23:50;22.20;99.90
18898;DHT22;9581;49.484;8.556;2023-08-21T03:26:17;22.10;99.90
18898;DHT22;9581;49.484;8.556;2023-08-21T03:28:44;22.00;99.90
18898;DHT22;9581;49.484;8.556;2023-08-21T03:31:11;22.10;99.90
18898;DHT22;9581;49.484;8.556;2023-08-21T03:33:37;22.10;99.90
18898;DHT22;9581;49.484;8.556;2023-08-21T03:36:05;22.10;99.90
18898;DHT22;9581;49.484;8.556;2023-08-21T03:38:31;22.10;99.90
18898;DHT22;9581;49.484;8.556;2023-08-21T03:41:00;22.00;99.90
18898;DHT22;9581;49.484;8.556;2023-08-21T03:43:27;22.00;99.90
18898;DHT22;9581;49.484;8.556;2023-08-21T03:45:54;22.00;99.90
18898;DHT22;9581;49.484;8.556;2023-08-21T03:48:21;22.00;99.90
18898;DHT22;9581;49.484;8.556;2023-08-21T03:50:48;22.00;99.90
18898;DHT22;9581;49.484;8.556;2023-08-21T03:53:15;22.10;99.90
18898;DHT22;9581;49.484;8.556;2023-08-21T03:55:42;22.00;99.90
18898;DHT22;9581;49.484;8.556;2023-08-21T03:58:10;22.00;99.90
18898;DHT22;9581;49.484;8.556;2023-08-21T04:00:37;22.00;99.90
18898;DHT22;9581;49.484;8.556;2023-08-21T04:03:03;22.00;99.90
18898;DHT22;9581;49.484;8.556;2023-08-21T04:05:30;22.00;99.90
18898;DHT22;9581;49.484;8.556;2023-08-21T04:07:57;22.00;99.90
18898;DHT22;9581;49.484;8.556;2023-08-21T04:10:24;22.00;99.90
18898;DHT22;9581;49.484;8.556;2023-08-21T04:12:50;22.00;99.90
18898;DHT22;9581;49.484;8.556;2023-08-21T04:15:18;21.90;99.90
18898;DHT22;9581;49.484;8.556;2023-08-21T04:17:45;22.00;99.90
18898;DHT22;9581;49.484;8.556;2023-08-21T04:20:12;22.00;99.90
18898;DHT22;9581;49.484;8.556;2023-08-21T04:22:39;22.00;99.90
18898;DHT22;9581;49.484;8.556;2023-08-21T04:25:06;22.10;99.90
18898;DHT22;9581;49.484;8.556;2023-08-21T04:27:33;22.20;99.90
18898;DHT22;9581;49.484;8.556;2023-08-21T04:30:00;22.20;99.90
18898;DHT22;9581;49.484;8.556;2023-08-21T04:32:28;22.20;99.90
18898;DHT22;9581;49.484;8.556;2023-08-21T04:34:55;22.10;99.90
18898;DHT22;9581;49.484;8.556;2023-08-21T04:37:21;22.00;99.90
18898;DHT22;9581;49.484;8.556;2023-08-21T04:39:50;21.90;99.90
18898;DHT22;9581;49.484;8.556;2023-08-21T04:42:17;22.00;99.90
18898;DHT22;9581;49.484;8.556;2023-08-21T04:44:44;22.00;99.90
18898;DHT22;9581;49.484;8.556;2023-08-21T04:47:20;22.00;99.90
18898;DHT22;9581;49.484;8.556;2023-08-21T04:49:49;22.00;99.90
18898;DHT22;9581;49.484;8.556;2023-08-21T04:52:16;21.90;99.90
18898;DHT22;9581;49.484;8.556;2023-08-21T04:54:43;21.90;99.90
18898;DHT22;9581;49.484;8.556;2023-08-21T04:57:09;22.00;99.90
18898;DHT22;9581;49.484;8.556;2023-08-21T04:59:37;21.90;99.90
18898;DHT22;9581;49.484;8.556;2023-08-21T05:02:04;21.90;99.90
18898;DHT22;9581;49.484;8.556;2023-08-21T05:04:31;22.00;99.90
18898;DHT22;9581;49.484;8.556;2023-08-21T05:06:59;21.90;99.90
18898;DHT22;9581;49.484;8.556;2023-08-21T05:09:26;22.00;99.90
18898;DHT22;9581;49.484;8.556;2023-08-21T05:11:54;22.00;99.90
18898;DHT22;9581;49.484;8.556;2023-08-21T05:14:21;22.00;99.90
18898;DHT22;9581;49.484;8.556;2023-08-21T05:16:48;22.10;99.90
18898;DHT22;9581;49.484;8.556;2023-08-21T05:19:15;22.20;99.90
18898;DHT22;9581;49.484;8.556;2023-08-21T05:21:42;22.10;99.90
18898;DHT22;9581;49.484;8.556;2023-08-21T05:24:10;22.20;99.90
18898;DHT22;9581;49.484;8.556;2023-08-21T05:26:37;22.20;99.90
18898;DHT22;9581;49.484;8.556;2023-08-21T05:29:04;22.10;99.90
18898;DHT22;9581;49.484;8.556;2023-08-21T05:31:31;22.30;99.90
18898;DHT22;9581;49.484;8.556;2023-08-21T05:33:58;22.30;99.90
18898;DHT22;9581;49.484;8.556;2023-08-21T05:36:25;22.30;99.90
18898;DHT22;9581;49.484;8.556;2023-08-21T05:38:52;22.40;99.90
18898;DHT22;9581;49.484;8.556;2023-08-21T05:41:20;22.50;99.90
18898;DHT22;9581;49.484;8.556;2023-08-21T05:43:47;22.50;99.90
18898;DHT22;9581;49.484;8.556;2023-08-21T05:46:14;22.60;99.90
18898;DHT22;9581;49.484;8.556;2023-08-21T05:48:41;22.50;99.90
18898;DHT22;9581;49.484;8.556;2023-08-21T05:51:08;22.50;99.90
18898;DHT22;9581;49.484;8.556;2023-08-21T05:53:34;22.50;99.90
18898;DHT22;9581;49.484;8.556;2023-08-21T05:56:01;22.50;99.90
18898;DHT22;9581;49.484;8.556;2023-08-21T05:58:29;22.50;99.90
18898;DHT22;9581;49.484;8.556;2023-08-21T06:00:58;22.50;99.90
18898;DHT22;9581;49.484;8.556;2023-08-21T06:03:25;22.50;99.90
18898;DHT22;9581;49.484;8.556;2023-08-21T06:05:52;22.60;99.90
18898;DHT22;9581;49.484;8.556;2023-08-21T06:08:18;22.70;99.90
18898;DHT22;9581;49.484;8.556;2023-08-21T06:10:45;22.70;99.90
18898;DHT22;9581;49.484;8.556;2023-08-21T06:13:16;22.60;99.90
18898;DHT22;9581;49.484;8.556;2023-08-21T06:15:45;22.70;99.90
18898;DHT22;9581;49.484;8.556;2023-08-21T06:18:11;22.80;99.90
18898;DHT22;9581;49.484;8.556;2023-08-21T06:20:38;22.80;99.90
18898;DHT22;9581;49.484;8.556;2023-08-21T06:23:05;22.90;99.90
18898;DHT22;9581;49.484;8.556;2023-08-21T06:25:32;22.90;99.90
18898;DHT22;9581;49.484;8.556;2023-08-21T06:27:59;23.00;99.90
18898;DHT22;9581;49.484;8.556;2023-08-21T06:30:26;23.00;99.90
18898;DHT22;9581;49.484;8.556;2023-08-21T06:32:54;23.00;99.90
18898;DHT22;9581;49.484;8.556;2023-08-21T06:35:21;23.00;99.90
18898;DHT22;9581;49.484;8.556;2023-08-21T06:37:48;23.10;99.90
18898;DHT22;9581;49.484;8.556;2023-08-21T06:40:14;23.10;99.90
18898;DHT22;9581;49.484;8.556;2023-08-21T06:42:41;23.20;99.90
18898;DHT22;9581;49.484;8.556;2023-08-21T06:45:09;23.30;99.90
18898;DHT22;9581;49.484;8.556;2023-08-21T06:47:35;23.40;99.90
18898;DHT22;9581;49.484;8.556;2023-08-21T06:50:04;23.40;99.90
18898;DHT22;9581;49.484;8.556;2023-08-21T06:52:31;23.60;99.90
18898;DHT22;9581;49.484;8.556;2023-08-21T06:54:58;23.60;99.90
18898;DHT22;9581;49.484;8.556;2023-08-21T06:57:25;23.70;99.90
18898;DHT22;9581;49.484;8.556;2023-08-21T06:59:51;23.70;99.90
18898;DHT22;9581;49.484;8.556;2023-08-21T07:02:18;23.80;99.90
18898;DHT22;9581;49.484;8.556;2023-08-21T07:04:45;23.80;99.90
18898;DHT22;9581;49.484;8.556;2023-08-21T07:07:13;23.90;99.90
18898;DHT22;9581;49.484;8.556;2023-08-21T07:09:40;23.90;99.90
18898;DHT22;9581;49.484;8.556;2023-08-21T07:12:07;24.10;99.90
18898;DHT22;9581;49.484;8.556;2023-08-21T07:14:33;24.20;99.90
18898;DHT22;9581;49.484;8.556;2023-08-21T07:17:00;24.30;99.90
18898;DHT22;9581;49.484;8.556;2023-08-21T07:19:27;24.40;99.90
18898;DHT22;9581;49.484;8.556;2023-08-21T07:21:54;24.60;99.90
18898;DHT22;9581;49.484;8.556;2023-08-21T07:24:22;24.70;99.90
18898;DHT22;9581;49.484;8.556;2023-08-21T07:26:48;24.80;99.90
18898;DHT22;9581;49.484;8.556;2023-08-21T07:29:15;24.90;99.90
18898;DHT22;9581;49.484;8.556;2023-08-21T07:31:42;25.00;99.90
18898;DHT22;9581;49.484;8.556;2023-08-21T07:34:09;25.00;99.90
18898;DHT22;9581;49.484;8.556;2023-08-21T07:36:35;25.40;99.90
18898;DHT22;9581;49.484;8.556;2023-08-21T07:39:03;25.60;99.90
18898;DHT22;9581;49.484;8.556;2023-08-21T07:41:31;25.60;99.90
18898;DHT22;9581;49.484;8.556;2023-08-21T07:43:57;25.70;99.90
18898;DHT22;9581;49.484;8.556;2023-08-21T07:46:24;26.10;99.90
18898;DHT22;9581;49.484;8.556;2023-08-21T07:48:52;26.10;99.90
18898;DHT22;9581;49.484;8.556;2023-08-21T07:51:19;26.40;99.90
18898;DHT22;9581;49.484;8.556;2023-08-21T07:53:46;26.30;99.90
18898;DHT22;9581;49.484;8.556;2023-08-21T07:56:13;26.40;99.90
18898;DHT22;9581;49.484;8.556;2023-08-21T07:58:41;26.90;99.90
18898;DHT22;9581;49.484;8.556;2023-08-21T08:01:07;27.00;99.90
18898;DHT22;9581;49.484;8.556;2023-08-21T08:03:34;27.00;99.90
18898;DHT22;9581;49.484;8.556;2023-08-21T08:06:01;28.20;99.90
18898;DHT22;9581;49.484;8.556;2023-08-21T08:08:28;28.40;99.90
18898;DHT22;9581;49.484;8.556;2023-08-21T08:11:01;28.40;99.90
18898;DHT22;9581;49.484;8.556;2023-08-21T08:13:27;27.80;99.90
18898;DHT22;9581;49.484;8.556;2023-08-21T08:15:56;27.90;99.90
18898;DHT22;9581;49.484;8.556;2023-08-21T08:18:22;28.00;99.90
18898;DHT22;9581;49.484;8.556;2023-08-21T08:20:49;29.90;99.90
18898;DHT22;9581;49.484;8.556;2023-08-21T08:23:16;31.40;99.90
18898;DHT22;9581;49.484;8.556;2023-08-21T08:25:42;33.20;99.90
18898;DHT22;9581;49.484;8.556;2023-08-21T08:28:09;35.70;99.90
18898;DHT22;9581;49.484;8.556;2023-08-21T08:30:36;37.50;99.90
18898;DHT22;9581;49.484;8.556;2023-08-21T08:33:04;35.70;99.90
18898;DHT22;9581;49.484;8.556;2023-08-21T08:35:31;34.30;99.90
18898;DHT22;9581;49.484;8.556;2023-08-21T08:37:58;33.80;99.90
18898;DHT22;9581;49.484;8.556;2023-08-21T08:40:25;32.10;99.90
18898;DHT22;9581;49.484;8.556;2023-08-21T08:42:52;33.20;99.90
18898;DHT22;9581;49.484;8.556;2023-08-21T08:45:28;33.70;99.90
18898;DHT22;9581;49.484;8.556;2023-08-21T08:47:58;34.30;99.90
18898;DHT22;9581;49.484;8.556;2023-08-21T08:50:28;34.30;99.90
18898;DHT22;9581;49.484;8.556;2023-08-21T08:52:57;33.80;99.90
18898;DHT22;9581;49.484;8.556;2023-08-21T08:55:24;33.50;99.90
18898;DHT22;9581;49.484;8.556;2023-08-21T08:57:52;33.40;99.90
18898;DHT22;9581;49.484;8.556;2023-08-21T09:00:18;31.40;99.90
18898;DHT22;9581;49.484;8.556;2023-08-21T09:02:47;30.90;99.90
18898;DHT22;9581;49.484;8.556;2023-08-21T09:05:14;30.60;99.90
18898;DHT22;9581;49.484;8.556;2023-08-21T09:07:42;30.20;99.90
18898;DHT22;9581;49.484;8.556;2023-08-21T09:10:13;30.20;99.90
18898;DHT22;9581;49.484;8.556;2023-08-21T09:12:40;30.00;99.90
18898;DHT22;9581;49.484;8.556;2023-08-21T09:15:08;29.90;99.90
18898;DHT22;9581;49.484;8.556;2023-08-21T09:17:34;29.80;99.90
18898;DHT22;9581;49.484;8.556;2023-08-21T09:20:04;29.70;99.90
18898;DHT22;9581;49.484;8.556;2023-08-21T09:22:30;29.60;99.90
18898;DHT22;9581;49.484;8.556;2023-08-21T09:25:03;29.80;99.90
18898;DHT22;9581;49.484;8.556;2023-08-21T09:27:32;29.90;99.90
18898;DHT22;9581;49.484;8.556;2023-08-21T09:29:59;29.90;99.90
18898;DHT22;9581;49.484;8.556;2023-08-21T09:32:28;29.90;99.90
18898;DHT22;9581;49.484;8.556;2023-08-21T09:34:54;29.90;99.90
18898;DHT22;9581;49.484;8.556;2023-08-21T09:37:28;29.90;99.90
18898;DHT22;9581;49.484;8.556;2023-08-21T09:39:56;30.00;99.90
18898;DHT22;9581;49.484;8.556;2023-08-21T09:42:28;30.00;99.90
18898;DHT22;9581;49.484;8.556;2023-08-21T09:44:55;30.10;99.90
18898;DHT22;9581;49.484;8.556;2023-08-21T09:47:23;30.00;99.90
18898;DHT22;9581;49.484;8.556;2023-08-21T09:49:50;30.00;99.90
18898;DHT22;9581;49.484;8.556;2023-08-21T09:52:17;30.10;99.90
18898;DHT22;9581;49.484;8.556;2023-08-21T09:54:44;30.30;99.90
18898;DHT22;9581;49.484;8.556;2023-08-21T09:57:11;30.50;99.90
18898;DHT22;9581;49.484;8.556;2023-08-21T09:59:39;30.40;99.90
18898;DHT22;9581;49.484;8.556;2023-08-21T10:02:09;30.60;99.90
18898;DHT22;9581;49.484;8.556;2023-08-21T10:04:37;30.50;99.90
18898;DHT22;9581;49.484;8.556;2023-08-21T10:07:07;30.30;99.90
18898;DHT22;9581;49.484;8.556;2023-08-21T10:09:34;30.60;99.90
18898;DHT22;9581;49.484;8.556;2023-08-21T10:12:02;30.60;99.90
18898;DHT22;9581;49.484;8.556;2023-08-21T10:14:29;30.90;99.90
18898;DHT22;9581;49.484;8.556;2023-08-21T10:16:57;31.00;99.90
18898;DHT22;9581;49.484;8.556;2023-08-21T10:19:30;31.10;99.90
18898;DHT22;9581;49.484;8.556;2023-08-21T10:21:57;31.10;99.90
18898;DHT22;9581;49.484;8.556;2023-08-21T10:24:28;31.10;99.90
18898;DHT22;9581;49.484;8.556;2023-08-21T10:26:58;31.20;99.90
18898;DHT22;9581;49.484;8.556;2023-08-21T10:29:25;31.20;99.90
18898;DHT22;9581;49.484;8.556;2023-08-21T10:32:00;31.40;99.90
18898;DHT22;9581;49.484;8.556;2023-08-21T10:34:33;31.40;99.90
18898;DHT22;9581;49.484;8.556;2023-08-21T10:37:05;31.40;99.90
18898;DHT22;9581;49.484;8.556;2023-08-21T10:39:33;31.50;99.90
18898;DHT22;9581;49.484;8.556;2023-08-21T10:42:04;31.50;99.90
18898;DHT22;9581;49.484;8.556;2023-08-21T10:44:35;31.80;99.90
18898;DHT22;9581;49.484;8.556;2023-08-21T10:47:18;31.60;99.90
18898;DHT22;9581;49.484;8.556;2023-08-21T10:49:46;31.50;99.90
18898;DHT22;9581;49.484;8.556;2023-08-21T10:52:13;31.50;99.90
18898;DHT22;9581;49.484;8.556;2023-08-21T10:54:44;31.80;99.90
18898;DHT22;9581;49.484;8.556;2023-08-21T10:57:11;31.60;99.90
18898;DHT22;9581;49.484;8.556;2023-08-21T10:59:38;31.70;99.90
18898;DHT22;9581;49.484;8.556;2023-08-21T11:02:05;31.90;99.90
18898;DHT22;9581;49.484;8.556;2023-08-21T11:04:40;32.10;99.90
18898;DHT22;9581;49.484;8.556;2023-08-21T11:07:10;32.10;99.90
18898;DHT22;9581;49.484;8.556;2023-08-21T11:09:37;32.10;99.90
18898;DHT22;9581;49.484;8.556;2023-08-21T11:12:06;32.10;99.90
18898;DHT22;9581;49.484;8.556;2023-08-21T11:14:33;32.20;99.90
18898;DHT22;9581;49.484;8.556;2023-08-21T11:17:00;32.40;99.90
18898;DHT22;9581;49.484;8.556;2023-08-21T11:19:29;32.40;99.90
18898;DHT22;9581;49.484;8.556;2023-08-21T11:21:57;32.30;99.90
18898;DHT22;9581;49.484;8.556;2023-08-21T11:24:30;32.20;99.90
18898;DHT22;9581;49.484;8.556;2023-08-21T11:26:57;32.20;99.90
18898;DHT22;9581;49.484;8.556;2023-08-21T11:29:24;32.20;99.90
18898;DHT22;9581;49.484;8.556;2023-08-21T11:31:52;32.20;99.90
18898;DHT22;9581;49.484;8.556;2023-08-21T11:34:19;32.00;99.90
18898;DHT22;9581;49.484;8.556;2023-08-21T11:36:46;32.30;99.90
18898;DHT22;9581;49.484;8.556;2023-08-21T11:39:14;32.20;99.90
18898;DHT22;9581;49.484;8.556;2023-08-21T11:41:54;32.50;99.90
18898;DHT22;9581;49.484;8.556;2023-08-21T11:44:20;32.60;99.90
18898;DHT22;9581;49.484;8.556;2023-08-21T11:46:47;32.60;99.90
18898;DHT22;9581;49.484;8.556;2023-08-21T11:49:15;32.70;99.90
18898;DHT22;9581;49.484;8.556;2023-08-21T11:51:45;32.70;99.90
18898;DHT22;9581;49.484;8.556;2023-08-21T11:54:11;32.80;99.90
18898;DHT22;9581;49.484;8.556;2023-08-21T11:56:40;32.80;99.90
18898;DHT22;9581;49.484;8.556;2023-08-21T11:59:08;32.90;99.90
18898;DHT22;9581;49.484;8.556;2023-08-21T12:01:35;33.00;99.90
18898;DHT22;9581;49.484;8.556;2023-08-21T12:04:14;33.00;99.90
18898;DHT22;9581;49.484;8.556;2023-08-21T12:06:43;33.00;99.90
18898;DHT22;9581;49.484;8.556;2023-08-21T12:09:10;32.90;99.90
18898;DHT22;9581;49.484;8.556;2023-08-21T12:11:37;33.00;99.90
18898;DHT22;9581;49.484;8.556;2023-08-21T12:14:06;33.10;99.90
18898;DHT22;9581;49.484;8.556;2023-08-21T12:16:32;33.10;99.90
18898;DHT22;9581;49.484;8.556;2023-08-21T12:18:59;33.10;99.90
18898;DHT22;9581;49.484;8.556;2023-08-21T12:21:27;33.00;99.90
18898;DHT22;9581;49.484;8.556;2023-08-21T12:23:54;33.20;99.90
18898;DHT22;9581;49.484;8.556;2023-08-21T12:26:20;33.20;99.90
18898;DHT22;9581;49.484;8.556;2023-08-21T12:28:47;33.10;99.90
18898;DHT22;9581;49.484;8.556;2023-08-21T12:31:16;33.20;99.90
18898;DHT22;9581;49.484;8.556;2023-08-21T12:33:43;33.10;99.90
18898;DHT22;9581;49.484;8.556;2023-08-21T12:36:09;33.20;99.90
18898;DHT22;9581;49.484;8.556;2023-08-21T12:38:36;33.20;99.90
18898;DHT22;9581;49.484;8.556;2023-08-21T12:41:03;33.30;99.90
18898;DHT22;9581;49.484;8.556;2023-08-21T12:43:30;33.40;99.90
18898;DHT22;9581;49.484;8.556;2023-08-21T12:45:58;33.50;99.90
18898;DHT22;9581;49.484;8.556;2023-08-21T12:48:26;33.50;99.90
18898;DHT22;9581;49.484;8.556;2023-08-21T12:50:53;33.60;99.90
18898;DHT22;9581;49.484;8.556;2023-08-21T12:53:19;33.50;99.90
18898;DHT22;9581;49.484;8.556;2023-08-21T12:55:46;33.60;99.90
18898;DHT22;9581;49.484;8.556;2023-08-21T12:58:13;33.70;99.90
18898;DHT22;9581;49.484;8.556;2023-08-21T13:00:40;33.70;99.90
18898;DHT22;9581;49.484;8.556;2023-08-21T13:03:07;33.60;99.90
18898;DHT22;9581;49.484;8.556;2023-08-21T13:05:35;33.50;99.90
18898;DHT22;9581;49.484;8.556;2023-08-21T13:08:03;33.20;99.90
18898;DHT22;9581;49.484;8.556;2023-08-21T13:10:29;33.40;99.90
18898;DHT22;9581;49.484;8.556;2023-08-21T13:12:56;33.40;99.90
18898;DHT22;9581;49.484;8.556;2023-08-21T13:15:23;33.50;99.90
18898;DHT22;9581;49.484;8.556;2023-08-21T13:17:50;33.40;99.90
18898;DHT22;9581;49.484;8.556;2023-08-21T13:20:16;33.50;99.90
18898;DHT22;9581;49.484;8.556;2023-08-21T13:22:46;33.80;99.90
18898;DHT22;9581;49.484;8.556;2023-08-21T13:25:14;33.70;99.90
18898;DHT22;9581;49.484;8.556;2023-08-21T13:27:41;33.20;99.90
18898;DHT22;9581;49.484;8.556;2023-08-21T13:30:09;33.30;99.90
18898;DHT22;9581;49.484;8.556;2023-08-21T13:32:36;33.20;99.90
18898;DHT22;9581;49.484;8.556;2023-08-21T13:35:03;33.20;99.90
18898;DHT22;9581;49.484;8.556;2023-08-21T13:37:32;33.30;99.90
18898;DHT22;9581;49.484;8.556;2023-08-21T13:40:00;33.30;99.90
18898;DHT22;9581;49.484;8.556;2023-08-21T13:42:34;33.00;99.90
18898;DHT22;9581;49.484;8.556;2023-08-21T13:45:03;32.70;99.90
18898;DHT22;9581;49.484;8.556;2023-08-21T13:47:30;32.40;99.90
18898;DHT22;9581;49.484;8.556;2023-08-21T13:49:57;32.40;99.90
18898;DHT22;9581;49.484;8.556;2023-08-21T13:52:24;32.20;99.90
18898;DHT22;9581;49.484;8.556;2023-08-21T13:54:51;32.20;99.90
18898;DHT22;9581;49.484;8.556;2023-08-21T13:57:19;32.30;99.90
18898;DHT22;9581;49.484;8.556;2023-08-21T13:59:46;32.30;99.90
18898;DHT22;9581;49.484;8.556;2023-08-21T14:02:13;32.20;99.90
18898;DHT22;9581;49.484;8.556;2023-08-21T14:04:40;32.10;99.90
18898;DHT22;9581;49.484;8.556;2023-08-21T14:07:06;32.20;99.90
18898;DHT22;9581;49.484;8.556;2023-08-21T14:09:33;32.10;99.90
18898;DHT22;9581;49.484;8.556;2023-08-21T14:12:01;32.20;99.90
18898;DHT22;9581;49.484;8.556;2023-08-21T14:14:29;32.40;99.90
18898;DHT22;9581;49.484;8.556;2023-08-21T14:16:56;32.60;99.90
18898;DHT22;9581;49.484;8.556;2023-08-21T14:19:24;32.80;99.90
18898;DHT22;9581;49.484;8.556;2023-08-21T14:21:50;32.90;99.90
18898;DHT22;9581;49.484;8.556;2023-08-21T14:24:17;32.80;99.90
18898;DHT22;9581;49.484;8.556;2023-08-21T14:26:44;33.00;99.90
18898;DHT22;9581;49.484;8.556;2023-08-21T14:29:11;32.90;99.90
18898;DHT22;9581;49.484;8.556;2023-08-21T14:31:39;32.90;99.90
18898;DHT22;9581;49.484;8.556;2023-08-21T14:34:06;32.70;99.90
18898;DHT22;9581;49.484;8.556;2023-08-21T14:36:32;32.40;99.90
18898;DHT22;9581;49.484;8.556;2023-08-21T14:38:59;32.20;99.90
18898;DHT22;9581;49.484;8.556;2023-08-21T14:41:26;31.90;99.90
18898;DHT22;9581;49.484;8.556;2023-08-21T14:43:53;31.80;99.90
18898;DHT22;9581;49.484;8.556;2023-08-21T14:46:20;32.10;99.90
18898;DHT22;9581;49.484;8.556;2023-08-21T14:48:48;32.60;99.90
18898;DHT22;9581;49.484;8.556;2023-08-21T14:51:14;33.10;99.90
18898;DHT22;9581;49.484;8.556;2023-08-21T14:53:41;33.20;99.90
18898;DHT22;9581;49.484;8.556;2023-08-21T14:56:08;33.60;99.90
18898;DHT22;9581;49.484;8.556;2023-08-21T14:58:35;33.60;99.90
18898;DHT22;9581;49.484;8.556;2023-08-21T15:01:01;32.90;99.90
18898;DHT22;9581;49.484;8.556;2023-08-21T15:03:30;32.50;99.90
18898;DHT22;9581;49.484;8.556;2023-08-21T15:05:59;32.10;99.90
18898;DHT22;9581;49.484;8.556;2023-08-21T15:08:25;32.70;99.90
18898;DHT22;9581;49.484;8.556;2023-08-21T15:10:52;32.90;99.90
18898;DHT22;9581;49.484;8.556;2023-08-21T15:13:19;33.80;99.90
18898;DHT22;9581;49.484;8.556;2023-08-21T15:15:46;34.10;99.90
18898;DHT22;9581;49.484;8.556;2023-08-21T15:18:13;33.90;99.90
18898;DHT22;9581;49.484;8.556;2023-08-21T15:20:40;33.30;99.90
18898;DHT22;9581;49.484;8.556;2023-08-21T15:23:08;33.20;99.90
18898;DHT22;9581;49.484;8.556;2023-08-21T15:25:34;33.40;99.90
18898;DHT22;9581;49.484;8.556;2023-08-21T15:28:01;33.40;99.90
18898;DHT22;9581;49.484;8.556;2023-08-21T15:30:28;33.70;99.90
18898;DHT22;9581;49.484;8.556;2023-08-21T15:32:55;34.00;99.90
18898;DHT22;9581;49.484;8.556;2023-08-21T15:35:22;34.00;99.90
18898;DHT22;9581;49.484;8.556;2023-08-21T15:37:49;34.50;99.90
18898;DHT22;9581;49.484;8.556;2023-08-21T15:40:17;34.90;99.90
18898;DHT22;9581;49.484;8.556;2023-08-21T15:42:43;35.40;99.90
18898;DHT22;9581;49.484;8.556;2023-08-21T15:45:10;35.50;99.90
18898;DHT22;9581;49.484;8.556;2023-08-21T15:47:37;35.20;99.90
18898;DHT22;9581;49.484;8.556;2023-08-21T15:50:05;35.00;99.90